createdAt,value
2023-10-30T00:00:55.232Z,954.8
2023-10-30T00:01:57.098Z,954.8
2023-10-30T00:02:59.199Z,954.8
2023-10-30T00:04:01.694Z,954.8
2023-10-30T00:05:03.636Z,954.8
2023-10-30T00:06:05.762Z,954.8
2023-10-30T00:07:07.570Z,954.8
2023-10-30T00:08:09.312Z,954.8
2023-10-30T00:09:11.345Z,954.8
2023-10-30T00:10:13.220Z,954.8
2023-10-30T00:11:15.004Z,954.8
2023-10-30T00:12:16.858Z,954.8
2023-10-30T00:13:18.619Z,954.8
2023-10-30T00:14:20.346Z,954.8
2023-10-30T00:15:22.238Z,954.8
2023-10-30T00:16:24.365Z,954.8
2023-10-30T00:17:26.238Z,954.7
2023-10-30T00:18:28.115Z,954.7
2023-10-30T00:19:29.910Z,954.7
2023-10-30T00:20:31.665Z,954.7
2023-10-30T00:21:33.636Z,954.7
2023-10-30T00:22:35.442Z,954.7
2023-10-30T00:23:37.152Z,954.7
2023-10-30T00:24:39.148Z,954.7
2023-10-30T00:25:40.901Z,954.7
2023-10-30T00:26:42.612Z,954.7
2023-10-30T00:27:44.305Z,954.6
2023-10-30T00:28:46.083Z,954.6
2023-10-30T00:29:49.104Z,954.6
2023-10-30T00:30:51.814Z,954.7
2023-10-30T00:31:53.668Z,954.6
2023-10-30T00:32:55.642Z,954.7
2023-10-30T00:33:57.542Z,954.7
2023-10-30T00:34:59.250Z,954.6
2023-10-30T00:36:00.987Z,954.7
2023-10-30T00:37:02.695Z,954.7
2023-10-30T00:38:04.493Z,954.7
2023-10-30T00:39:06.286Z,954.7
2023-10-30T00:40:08.033Z,954.7
2023-10-30T00:41:09.736Z,954.7
2023-10-30T00:42:11.577Z,954.6
2023-10-30T00:43:13.582Z,954.6
2023-10-30T00:44:15.278Z,954.6
2023-10-30T00:45:17.126Z,954.6
2023-10-30T00:46:19.228Z,954.6
2023-10-30T00:47:20.962Z,954.6
2023-10-30T00:48:22.774Z,954.6
2023-10-30T00:49:24.601Z,954.6
2023-10-30T00:50:26.348Z,954.6
2023-10-30T00:51:28.117Z,954.6
2023-10-30T00:52:29.974Z,954.6
2023-10-30T00:53:31.801Z,954.6
2023-10-30T00:54:33.655Z,954.6
2023-10-30T00:55:35.626Z,954.6
2023-10-30T00:56:37.347Z,954.6
2023-10-30T00:57:39.294Z,954.6
2023-10-30T00:58:41.063Z,954.6
2023-10-30T00:59:42.793Z,954.6
2023-10-30T01:00:44.870Z,954.6
2023-10-30T01:01:46.899Z,954.7
2023-10-30T01:02:49.459Z,954.6
2023-10-30T01:03:52.521Z,954.7
2023-10-30T01:04:56.114Z,954.7
2023-10-30T01:05:58.653Z,954.7
2023-10-30T01:07:00.430Z,954.7
2023-10-30T01:08:02.184Z,954.7
2023-10-30T01:09:04.230Z,954.7
2023-10-30T01:10:06.156Z,954.7
2023-10-30T01:11:07.841Z,954.7
2023-10-30T01:12:09.632Z,954.7
2023-10-30T01:13:11.531Z,954.7
2023-10-30T01:14:13.247Z,954.6
2023-10-30T01:15:15.045Z,954.7
2023-10-30T01:16:17.030Z,954.7
2023-10-30T01:17:18.938Z,954.7
2023-10-30T01:18:20.892Z,954.7
2023-10-30T01:19:22.712Z,954.7
2023-10-30T01:20:24.447Z,954.7
2023-10-30T01:21:26.338Z,954.7
2023-10-30T01:22:28.085Z,954.6
2023-10-30T01:23:29.788Z,954.7
2023-10-30T01:24:32.019Z,954.6
2023-10-30T01:25:33.999Z,954.6
2023-10-30T01:26:36.095Z,954.7
2023-10-30T01:27:37.963Z,954.7
2023-10-30T01:28:39.920Z,954.7
2023-10-30T01:29:41.647Z,954.7
2023-10-30T01:30:43.723Z,954.7
2023-10-30T01:31:45.578Z,954.7
2023-10-30T01:32:47.638Z,954.7
2023-10-30T01:33:50.016Z,954.7
2023-10-30T01:34:52.279Z,954.7
2023-10-30T01:35:54.056Z,954.7
2023-10-30T01:36:55.767Z,954.7
2023-10-30T01:37:57.468Z,954.7
2023-10-30T01:38:59.244Z,954.7
2023-10-30T01:40:01.194Z,954.7
2023-10-30T01:41:02.898Z,954.6
2023-10-30T01:42:04.632Z,954.7
2023-10-30T01:43:06.327Z,954.6
2023-10-30T01:44:08.022Z,954.6
2023-10-30T01:45:09.816Z,954.6
2023-10-30T01:46:11.740Z,954.7
2023-10-30T01:47:13.486Z,954.7
2023-10-30T01:48:15.494Z,954.7
2023-10-30T01:49:17.586Z,954.7
2023-10-30T01:50:19.306Z,954.7
2023-10-30T01:51:21.232Z,954.7
2023-10-30T01:52:22.973Z,954.7
2023-10-30T01:53:24.686Z,954.7
2023-10-30T01:54:26.524Z,954.7
2023-10-30T01:55:28.299Z,954.7
2023-10-30T01:56:29.993Z,954.7
2023-10-30T01:57:31.870Z,954.7
2023-10-30T01:58:33.805Z,954.7
2023-10-30T01:59:35.606Z,954.7
2023-10-30T02:00:37.600Z,954.7
2023-10-30T02:01:39.538Z,954.7
2023-10-30T02:02:41.813Z,954.7
2023-10-30T02:03:44.321Z,954.7
2023-10-30T02:04:46.450Z,954.7
2023-10-30T02:05:48.194Z,954.8
2023-10-30T02:06:49.965Z,954.8
2023-10-30T02:07:51.684Z,954.8
2023-10-30T02:08:53.510Z,954.8
2023-10-30T02:09:55.392Z,954.8
2023-10-30T02:10:57.169Z,954.8
2023-10-30T02:11:58.872Z,954.8
2023-10-30T02:13:00.682Z,954.8
2023-10-30T02:14:02.591Z,954.8
2023-10-30T02:15:04.268Z,954.8
2023-10-30T02:16:06.232Z,954.8
2023-10-30T02:17:08.151Z,954.8
2023-10-30T02:18:09.890Z,954.8
2023-10-30T02:19:11.698Z,954.8
2023-10-30T02:20:13.598Z,954.8
2023-10-30T02:21:15.474Z,954.8
2023-10-30T02:22:17.394Z,954.8
2023-10-30T02:23:19.097Z,954.8
2023-10-30T02:24:20.949Z,954.8
2023-10-30T02:25:22.741Z,954.8
2023-10-30T02:26:24.529Z,954.7
2023-10-30T02:27:26.489Z,954.7
2023-10-30T02:28:31.067Z,954.8
2023-10-30T02:29:32.779Z,954.7
2023-10-30T02:30:34.798Z,954.7
2023-10-30T02:31:36.724Z,954.7
2023-10-30T02:32:38.567Z,954.7
2023-10-30T02:33:42.842Z,954.8
2023-10-30T02:34:44.755Z,954.7
2023-10-30T02:35:46.518Z,954.8
2023-10-30T02:36:48.229Z,954.8
2023-10-30T02:37:49.994Z,954.7
2023-10-30T02:38:51.745Z,954.8
2023-10-30T02:39:53.589Z,954.8
2023-10-30T02:40:55.310Z,954.7
2023-10-30T02:41:57.053Z,954.8
2023-10-30T02:42:58.775Z,954.7
2023-10-30T02:44:00.530Z,954.8
2023-10-30T02:45:02.270Z,954.8
2023-10-30T02:46:04.091Z,954.7
2023-10-30T02:47:05.863Z,954.7
2023-10-30T02:48:07.933Z,954.7
2023-10-30T02:49:09.855Z,954.8
2023-10-30T02:50:11.583Z,954.7
2023-10-30T02:51:13.613Z,954.7
2023-10-30T02:52:15.348Z,954.7
2023-10-30T02:53:17.143Z,954.7
2023-10-30T02:54:18.937Z,954.7
2023-10-30T02:55:20.763Z,954.7
2023-10-30T02:56:22.478Z,954.8
2023-10-30T02:57:24.474Z,954.8
2023-10-30T02:58:26.451Z,954.7
2023-10-30T02:59:28.188Z,954.7
2023-10-30T03:00:30.114Z,954.7
2023-10-30T03:01:31.953Z,954.7
2023-10-30T03:02:34.125Z,954.8
2023-10-30T03:03:36.794Z,954.7
2023-10-30T03:04:39.469Z,954.7
2023-10-30T03:05:41.668Z,954.8
2023-10-30T03:06:43.486Z,954.8
2023-10-30T03:07:45.413Z,954.8
2023-10-30T03:08:47.137Z,954.8
2023-10-30T03:09:49.719Z,954.8
2023-10-30T03:10:51.818Z,954.8
2023-10-30T03:11:53.523Z,954.8
2023-10-30T03:12:55.250Z,954.8
2023-10-30T03:13:56.979Z,954.8
2023-10-30T03:14:58.875Z,954.8
2023-10-30T03:16:01.257Z,954.8
2023-10-30T03:17:03.238Z,954.8
2023-10-30T03:18:05.049Z,954.8
2023-10-30T03:19:07.127Z,954.8
2023-10-30T03:20:08.919Z,954.8
2023-10-30T03:21:10.755Z,954.8
2023-10-30T03:22:12.518Z,954.9
2023-10-30T03:23:14.267Z,954.9
2023-10-30T03:24:16.048Z,954.9
2023-10-30T03:25:18.174Z,954.9
2023-10-30T03:26:20.249Z,954.9
2023-10-30T03:27:22.086Z,954.9
2023-10-30T03:28:23.943Z,954.9
2023-10-30T03:29:25.687Z,954.9
2023-10-30T03:30:27.480Z,954.9
2023-10-30T03:31:29.294Z,954.9
2023-10-30T03:32:31.329Z,954.9
2023-10-30T03:33:33.490Z,954.9
2023-10-30T03:34:35.433Z,955
2023-10-30T03:35:37.341Z,955
2023-10-30T03:36:39.277Z,955
2023-10-30T03:37:41.121Z,955
2023-10-30T03:38:42.937Z,954.9
2023-10-30T03:39:44.970Z,954.9
2023-10-30T03:40:46.910Z,955
2023-10-30T03:41:48.661Z,954.9
2023-10-30T03:42:50.395Z,955
2023-10-30T03:43:52.177Z,955
2023-10-30T03:44:53.879Z,955
2023-10-30T03:45:56.038Z,955
2023-10-30T03:46:58.070Z,954.9
2023-10-30T03:47:59.866Z,955
2023-10-30T03:49:01.824Z,954.9
2023-10-30T03:50:03.571Z,955
2023-10-30T03:51:05.267Z,955
2023-10-30T03:52:07.003Z,955
2023-10-30T03:53:08.736Z,955
2023-10-30T03:54:10.523Z,954.9
2023-10-30T03:55:12.334Z,954.9
2023-10-30T03:56:14.039Z,955
2023-10-30T03:57:15.911Z,955
2023-10-30T03:58:17.796Z,954.9
2023-10-30T03:59:19.529Z,954.9
2023-10-30T04:00:21.320Z,954.9
2023-10-30T04:01:25.189Z,954.9
2023-10-30T04:02:27.260Z,954.9
2023-10-30T04:03:29.240Z,954.9
2023-10-30T04:04:31.486Z,954.9
2023-10-30T04:05:36.070Z,954.9
2023-10-30T04:06:38.242Z,954.9
2023-10-30T04:07:40.168Z,954.9
2023-10-30T04:08:41.942Z,954.9
2023-10-30T04:09:43.796Z,954.9
2023-10-30T04:10:45.603Z,954.9
2023-10-30T04:11:47.363Z,954.9
2023-10-30T04:12:49.363Z,954.9
2023-10-30T04:13:51.179Z,954.9
2023-10-30T04:14:52.949Z,954.9
2023-10-30T04:15:54.712Z,954.9
2023-10-30T04:16:56.566Z,954.9
2023-10-30T04:17:58.528Z,954.9
2023-10-30T04:19:00.319Z,954.9
2023-10-30T04:20:02.036Z,954.9
2023-10-30T04:21:03.847Z,954.9
2023-10-30T04:22:06.064Z,954.9
2023-10-30T04:23:07.853Z,954.9
2023-10-30T04:24:09.695Z,954.9
2023-10-30T04:25:11.425Z,954.9
2023-10-30T04:26:13.153Z,954.9
2023-10-30T04:27:14.908Z,954.9
2023-10-30T04:28:16.636Z,954.9
2023-10-30T04:29:18.406Z,954.9
2023-10-30T04:30:20.219Z,954.9
2023-10-30T04:31:22.247Z,954.9
2023-10-30T04:32:24.061Z,954.8
2023-10-30T04:33:25.915Z,954.8
2023-10-30T04:34:27.779Z,954.9
2023-10-30T04:35:29.607Z,954.9
2023-10-30T04:36:31.466Z,954.9
2023-10-30T04:37:33.257Z,954.9
2023-10-30T04:38:35.031Z,954.9
2023-10-30T04:39:36.912Z,954.9
2023-10-30T04:40:38.795Z,954.9
2023-10-30T04:41:40.541Z,954.9
2023-10-30T04:42:42.494Z,954.9
2023-10-30T04:43:44.515Z,954.9
2023-10-30T04:44:46.484Z,954.9
2023-10-30T04:45:48.501Z,954.9
2023-10-30T04:46:50.420Z,954.9
2023-10-30T04:47:52.531Z,954.9
2023-10-30T04:48:54.326Z,954.9
2023-10-30T04:49:56.095Z,954.9
2023-10-30T04:50:58.194Z,954.9
2023-10-30T04:51:59.904Z,954.9
2023-10-30T04:53:01.591Z,954.9
2023-10-30T04:54:03.382Z,954.9
2023-10-30T04:55:05.112Z,954.9
2023-10-30T04:56:07.069Z,954.9
2023-10-30T04:57:08.825Z,955
2023-10-30T04:58:10.538Z,955
2023-10-30T04:59:12.213Z,954.9
2023-10-30T05:00:14.030Z,955
2023-10-30T05:01:16.007Z,955
2023-10-30T05:02:17.901Z,955
2023-10-30T05:03:19.742Z,955
2023-10-30T05:04:21.600Z,955
2023-10-30T05:05:23.368Z,954.9
2023-10-30T05:06:25.239Z,955
2023-10-30T05:07:27.229Z,955
2023-10-30T05:08:29.021Z,955
2023-10-30T05:09:30.965Z,955
2023-10-30T05:10:32.754Z,955
2023-10-30T05:11:34.469Z,955
2023-10-30T05:12:36.392Z,955
2023-10-30T05:13:38.177Z,955
2023-10-30T05:14:39.912Z,955
2023-10-30T05:15:41.752Z,955
2023-10-30T05:16:44.393Z,955
2023-10-30T05:17:46.609Z,955.1
2023-10-30T05:18:48.604Z,955.1
2023-10-30T05:19:51.317Z,955.1
2023-10-30T05:20:53.055Z,955.2
2023-10-30T05:21:55.132Z,955.2
2023-10-30T05:22:56.999Z,955.2
2023-10-30T05:23:58.737Z,955.2
2023-10-30T05:25:00.482Z,955.2
2023-10-30T05:26:02.313Z,955.2
2023-10-30T05:27:04.058Z,955.2
2023-10-30T05:28:06.261Z,955.2
2023-10-30T05:29:08.219Z,955.2
2023-10-30T05:30:10.124Z,955.2
2023-10-30T05:31:12.285Z,955.2
2023-10-30T05:32:14.522Z,955.3
2023-10-30T05:33:16.310Z,955.3
2023-10-30T05:34:18.048Z,955.3
2023-10-30T05:35:20.304Z,955.3
2023-10-30T05:36:22.565Z,955.4
2023-10-30T05:37:24.461Z,955.3
2023-10-30T05:38:26.553Z,955.4
2023-10-30T05:39:28.697Z,955.4
2023-10-30T05:40:30.463Z,955.4
2023-10-30T05:41:32.212Z,955.4
2023-10-30T05:42:34.187Z,955.4
2023-10-30T05:43:35.968Z,955.4
2023-10-30T05:44:37.699Z,955.5
2023-10-30T05:45:39.644Z,955.4
2023-10-30T05:46:41.586Z,955.4
2023-10-30T05:47:43.860Z,955.5
2023-10-30T05:48:46.022Z,955.5
2023-10-30T05:49:48.951Z,955.4
2023-10-30T05:50:51.129Z,955.4
2023-10-30T05:51:52.832Z,955.4
2023-10-30T05:52:54.571Z,955.5
2023-10-30T05:53:56.264Z,955.5
2023-10-30T05:54:57.947Z,955.5
2023-10-30T05:55:59.689Z,955.5
2023-10-30T05:57:01.407Z,955.5
2023-10-30T05:58:03.168Z,955.4
2023-10-30T05:59:04.877Z,955.5
2023-10-30T06:00:06.626Z,955.5
2023-10-30T06:01:08.497Z,955.5
2023-10-30T06:02:10.193Z,955.5
2023-10-30T06:03:11.934Z,955.5
2023-10-30T06:04:14.154Z,955.5
2023-10-30T06:05:17.390Z,955.5
2023-10-30T06:06:19.194Z,955.5
2023-10-30T06:07:21.192Z,955.5
2023-10-30T06:08:22.935Z,955.5
2023-10-30T06:09:24.757Z,955.5
2023-10-30T06:10:26.511Z,955.5
2023-10-30T06:11:28.239Z,955.5
2023-10-30T06:12:30.107Z,955.5
2023-10-30T06:13:31.988Z,955.6
2023-10-30T06:14:33.688Z,955.5
2023-10-30T06:15:35.643Z,955.6
2023-10-30T06:16:37.540Z,955.6
2023-10-30T06:17:39.449Z,955.6
2023-10-30T06:18:41.444Z,955.6
2023-10-30T06:19:43.318Z,955.6
2023-10-30T06:20:45.098Z,955.6
2023-10-30T06:21:47.077Z,955.7
2023-10-30T06:22:48.897Z,955.7
2023-10-30T06:23:50.688Z,955.7
2023-10-30T06:24:52.798Z,955.7
2023-10-30T06:25:54.560Z,955.7
2023-10-30T06:26:57.202Z,955.7
2023-10-30T06:27:59.192Z,955.7
2023-10-30T06:29:00.898Z,955.7
2023-10-30T06:30:02.662Z,955.7
2023-10-30T06:31:04.437Z,955.7
2023-10-30T06:32:06.384Z,955.6
2023-10-30T06:33:08.587Z,955.7
2023-10-30T06:34:10.927Z,955.7
2023-10-30T06:35:12.844Z,955.7
2023-10-30T06:36:17.998Z,955.7
2023-10-30T06:37:20.091Z,955.7
2023-10-30T06:38:21.994Z,955.6
2023-10-30T06:39:23.819Z,955.7
2023-10-30T06:40:25.551Z,955.7
2023-10-30T06:41:27.261Z,955.7
2023-10-30T06:42:29.117Z,955.7
2023-10-30T06:43:31.041Z,955.7
2023-10-30T06:44:32.766Z,955.7
2023-10-30T06:45:34.746Z,955.7
2023-10-30T06:46:36.920Z,955.7
2023-10-30T06:47:39.039Z,955.7
2023-10-30T06:48:41.158Z,955.7
2023-10-30T06:49:43.251Z,955.7
2023-10-30T06:50:44.974Z,955.7
2023-10-30T06:51:46.751Z,955.7
2023-10-30T06:52:48.607Z,955.7
2023-10-30T06:53:50.367Z,955.7
2023-10-30T06:54:52.502Z,955.7
2023-10-30T06:55:54.297Z,955.7
2023-10-30T06:56:56.032Z,955.7
2023-10-30T06:57:57.818Z,955.7
2023-10-30T06:58:59.530Z,955.7
2023-10-30T07:00:01.228Z,955.7
2023-10-30T07:01:03.259Z,955.7
2023-10-30T07:02:05.570Z,955.6
2023-10-30T07:03:07.405Z,955.7
2023-10-30T07:04:09.890Z,955.6
2023-10-30T07:05:11.798Z,955.7
2023-10-30T07:06:13.756Z,955.6
2023-10-30T07:07:15.788Z,955.6
2023-10-30T07:08:17.501Z,955.6
2023-10-30T07:09:19.283Z,955.6
2023-10-30T07:10:21.157Z,955.6
2023-10-30T07:11:22.859Z,955.6
2023-10-30T07:12:24.660Z,955.6
2023-10-30T07:13:26.434Z,955.6
2023-10-30T07:14:28.162Z,955.6
2023-10-30T07:15:30.114Z,955.6
2023-10-30T07:16:32.192Z,955.6
2023-10-30T07:17:34.053Z,955.6
2023-10-30T07:18:35.950Z,955.6
2023-10-30T07:19:37.703Z,955.6
2023-10-30T07:20:39.482Z,955.5
2023-10-30T07:21:47.045Z,955.5
2023-10-30T07:22:48.786Z,955.6
2023-10-30T07:23:50.550Z,955.6
2023-10-30T07:24:52.489Z,955.5
2023-10-30T07:25:54.248Z,955.6
2023-10-30T07:26:55.984Z,955.6
2023-10-30T07:27:57.951Z,955.5
2023-10-30T07:28:59.881Z,955.5
2023-10-30T07:30:01.781Z,955.5
2023-10-30T07:31:04.465Z,955.6
2023-10-30T07:32:06.825Z,955.6
2023-10-30T07:33:09.874Z,955.6
2023-10-30T07:34:11.673Z,955.6
2023-10-30T07:35:13.443Z,955.6
2023-10-30T07:36:15.339Z,955.6
2023-10-30T07:37:17.150Z,955.6
2023-10-30T07:38:18.890Z,955.6
2023-10-30T07:39:20.700Z,955.6
2023-10-30T07:40:22.516Z,955.6
2023-10-30T07:41:24.266Z,955.6
2023-10-30T07:42:26.108Z,955.6
2023-10-30T07:43:27.865Z,955.6
2023-10-30T07:44:29.573Z,955.6
2023-10-30T07:45:31.820Z,955.6
2023-10-30T07:46:34.333Z,955.6
2023-10-30T07:47:45.336Z,955.6
2023-10-30T07:48:47.650Z,955.6
2023-10-30T07:49:49.494Z,955.6
2023-10-30T07:50:51.183Z,955.6
2023-10-30T07:51:53.129Z,955.6
2023-10-30T07:52:55.071Z,955.6
2023-10-30T07:53:56.792Z,955.6
2023-10-30T07:54:58.659Z,955.5
2023-10-30T07:56:00.525Z,955.6
2023-10-30T07:57:02.364Z,955.6
2023-10-30T07:58:04.090Z,955.6
2023-10-30T07:59:05.873Z,955.6
2023-10-30T08:00:07.678Z,955.6
2023-10-30T08:01:09.864Z,955.6
2023-10-30T08:02:12.243Z,955.6
2023-10-30T08:03:14.652Z,955.5
2023-10-30T08:04:17.167Z,955.5
2023-10-30T08:05:19.353Z,955.6
2023-10-30T08:06:21.203Z,955.5
2023-10-30T08:07:23.039Z,955.6
2023-10-30T08:08:24.792Z,955.6
2023-10-30T08:09:26.664Z,955.6
2023-10-30T08:10:28.604Z,955.5
2023-10-30T08:11:30.534Z,955.5
2023-10-30T08:12:32.349Z,955.5
2023-10-30T08:13:34.349Z,955.5
2023-10-30T08:14:38.133Z,955.5
2023-10-30T08:15:40.032Z,955.5
2023-10-30T08:16:42.413Z,955.5
2023-10-30T08:17:44.453Z,955.4
2023-10-30T08:18:46.563Z,955.5
2023-10-30T08:19:48.472Z,955.5
2023-10-30T08:20:50.280Z,955.5
2023-10-30T08:21:53.129Z,955.4
2023-10-30T08:22:54.908Z,955.4
2023-10-30T08:23:56.610Z,955.4
2023-10-30T08:24:58.656Z,955.4
2023-10-30T08:26:00.608Z,955.4
2023-10-30T08:27:02.364Z,955.4
2023-10-30T08:28:04.220Z,955.4
2023-10-30T08:29:05.981Z,955.3
2023-10-30T08:30:07.788Z,955.4
2023-10-30T08:31:09.975Z,955.4
2023-10-30T08:32:11.926Z,955.4
2023-10-30T08:33:13.638Z,955.4
2023-10-30T08:34:15.417Z,955.4
2023-10-30T08:35:17.185Z,955.3
2023-10-30T08:36:19.114Z,955.4
2023-10-30T08:37:20.974Z,955.4
2023-10-30T08:38:22.733Z,955.4
2023-10-30T08:39:24.765Z,955.4
2023-10-30T08:40:26.592Z,955.5
2023-10-30T08:41:28.352Z,955.4
2023-10-30T08:42:30.160Z,955.5
2023-10-30T08:43:32.037Z,955.4
2023-10-30T08:44:33.742Z,955.4
2023-10-30T08:45:35.623Z,955.4
2023-10-30T08:46:37.746Z,955.4
2023-10-30T08:47:40.112Z,955.4
2023-10-30T08:48:42.657Z,955.4
2023-10-30T08:49:44.849Z,955.4
2023-10-30T08:50:46.570Z,955.4
2023-10-30T08:52:05.264Z,955.4
2023-10-30T08:53:07.305Z,955.4
2023-10-30T08:54:09.054Z,955.3
2023-10-30T08:55:10.796Z,955.3
2023-10-30T08:56:12.499Z,955.3
2023-10-30T08:57:18.403Z,955.3
2023-10-30T08:58:20.366Z,955.3
2023-10-30T08:59:22.144Z,955.3
2023-10-30T09:00:24.097Z,955.3
2023-10-30T09:01:25.889Z,955.3
2023-10-30T09:02:27.667Z,955.3
2023-10-30T09:03:29.969Z,955.3
2023-10-30T09:04:33.813Z,955.3
2023-10-30T09:05:43.629Z,955.3
2023-10-30T09:06:56.273Z,955.3
2023-10-30T09:08:07.726Z,955.2
2023-10-30T09:09:12.513Z,955.2
2023-10-30T09:10:16.863Z,955.2
2023-10-30T09:11:30.786Z,955.2
2023-10-30T09:12:33.064Z,955.1
2023-10-30T09:13:38.890Z,955.2
2023-10-30T09:14:44.551Z,955.1
2023-10-30T09:15:52.784Z,955.1
2023-10-30T09:17:01.728Z,955.1
2023-10-30T09:18:24.137Z,955.1
2023-10-30T09:19:39.686Z,955.1
2023-10-30T09:21:09.899Z,955.1
2023-10-30T09:22:20.085Z,955.1
2023-10-30T09:23:37.987Z,955
2023-10-30T09:24:46.857Z,955
2023-10-30T09:25:51.780Z,955
2023-10-30T09:26:53.538Z,955
2023-10-30T09:28:18.399Z,955
2023-10-30T09:29:20.222Z,955
2023-10-30T09:30:39.983Z,955
2023-10-30T09:31:42.616Z,955
2023-10-30T09:32:44.761Z,954.9
2023-10-30T09:33:47.033Z,954.9
2023-10-30T09:34:49.070Z,954.9
2023-10-30T09:35:51.100Z,954.9
2023-10-30T09:37:04.680Z,954.9
2023-10-30T09:38:09.047Z,954.9
2023-10-30T09:39:14.472Z,954.9
2023-10-30T09:40:16.239Z,954.9
2023-10-30T09:41:24.994Z,954.8
2023-10-30T09:42:36.157Z,954.8
2023-10-30T09:43:48.017Z,954.8
2023-10-30T09:44:56.150Z,954.8
2023-10-30T09:46:04.336Z,954.7
2023-10-30T09:47:12.745Z,954.7
2023-10-30T09:48:33.998Z,954.7
2023-10-30T09:49:38.949Z,954.7
2023-10-30T09:50:40.911Z,954.7
2023-10-30T09:51:45.927Z,954.7
2023-10-30T09:52:54.183Z,954.7
2023-10-30T09:53:57.487Z,954.6
2023-10-30T09:55:01.293Z,954.6
2023-10-30T09:56:03.118Z,954.6
2023-10-30T09:57:04.907Z,954.6
2023-10-30T09:58:06.646Z,954.5
2023-10-30T09:59:08.376Z,954.5
2023-10-30T10:00:10.068Z,954.5
2023-10-30T10:01:12.332Z,954.5
2023-10-30T10:02:14.486Z,954.5
2023-10-30T10:03:16.675Z,954.4
2023-10-30T10:04:19.477Z,954.5
2023-10-30T10:05:21.578Z,954.4
2023-10-30T10:06:23.613Z,954.4
2023-10-30T10:07:28.408Z,954.4
2023-10-30T10:08:30.272Z,954.4
2023-10-30T10:09:35.302Z,954.4
2023-10-30T10:10:52.242Z,954.4
2023-10-30T10:12:09.090Z,954.4
2023-10-30T10:13:50.741Z,954.3
2023-10-30T10:15:11.197Z,954.3
2023-10-30T10:17:22.300Z,954.3
2023-10-30T10:18:55.288Z,954.2
2023-10-30T10:20:40.376Z,954.2
2023-10-30T10:22:08.072Z,954.2
2023-10-30T10:23:22.693Z,954.2
2023-10-30T10:24:34.586Z,954.1
2023-10-30T10:26:03.033Z,954.1
2023-10-30T10:27:05.338Z,954.2
2023-10-30T10:28:26.016Z,954.1
2023-10-30T10:29:33.107Z,954.1
2023-10-30T10:30:35.423Z,954.1
2023-10-30T10:31:45.294Z,954
2023-10-30T10:32:48.267Z,954
2023-10-30T10:33:50.907Z,954
2023-10-30T10:34:54.525Z,954
2023-10-30T10:36:02.426Z,954
2023-10-30T10:37:23.586Z,954
2023-10-30T10:38:27.343Z,953.9
2023-10-30T10:39:29.443Z,953.9
2023-10-30T10:40:37.899Z,953.9
2023-10-30T10:41:48.478Z,953.9
2023-10-30T10:42:55.645Z,953.9
2023-10-30T10:43:57.424Z,953.9
2023-10-30T10:44:59.585Z,953.9
2023-10-30T10:46:01.839Z,953.9
2023-10-30T10:47:03.750Z,953.9
2023-10-30T10:48:05.450Z,953.9
2023-10-30T10:49:07.166Z,953.9
2023-10-30T10:50:08.878Z,953.9
2023-10-30T10:51:10.663Z,953.9
2023-10-30T10:52:12.387Z,953.9
2023-10-30T10:53:14.091Z,953.8
2023-10-30T10:54:15.840Z,953.8
2023-10-30T10:55:17.595Z,953.8
2023-10-30T10:56:19.507Z,953.8
2023-10-30T10:57:21.268Z,953.8
2023-10-30T10:58:24.449Z,953.8
2023-10-30T10:59:29.784Z,953.7
2023-10-30T11:00:31.826Z,953.8
2023-10-30T11:01:34.137Z,953.7
2023-10-30T11:02:36.267Z,953.7
2023-10-30T11:03:39.419Z,953.7
2023-10-30T11:04:41.945Z,953.7
2023-10-30T11:05:43.994Z,953.7
2023-10-30T11:06:46.025Z,953.6
2023-10-30T11:07:47.874Z,953.7
2023-10-30T11:08:49.608Z,953.6
2023-10-30T11:09:52.645Z,953.6
2023-10-30T11:10:55.365Z,953.6
2023-10-30T11:11:57.221Z,953.6
2023-10-30T11:12:59.380Z,953.6
2023-10-30T11:14:01.279Z,953.6
2023-10-30T11:15:03.138Z,953.5
2023-10-30T11:16:05.493Z,953.5
2023-10-30T11:17:07.644Z,953.5
2023-10-30T11:18:09.538Z,953.5
2023-10-30T11:19:11.526Z,953.5
2023-10-30T11:20:13.233Z,953.4
2023-10-30T11:21:15.044Z,953.4
2023-10-30T11:22:16.774Z,953.4
2023-10-30T11:23:18.543Z,953.4
2023-10-30T11:24:20.232Z,953.4
2023-10-30T11:25:24.844Z,953.4
2023-10-30T11:26:26.585Z,953.4
2023-10-30T11:27:28.821Z,953.4
2023-10-30T11:28:30.728Z,953.4
2023-10-30T11:29:32.500Z,953.3
2023-10-30T11:30:34.332Z,953.3
2023-10-30T11:31:36.483Z,953.3
2023-10-30T11:32:38.359Z,953.2
2023-10-30T11:33:40.429Z,953.2
2023-10-30T11:34:42.182Z,953.2
2023-10-30T11:35:43.923Z,953.2
2023-10-30T11:36:45.734Z,953.1
2023-10-30T11:37:47.593Z,953.2
2023-10-30T11:38:49.318Z,953.1
2023-10-30T11:39:51.158Z,953.1
2023-10-30T11:40:53.098Z,953.2
2023-10-30T11:41:54.877Z,953.2
2023-10-30T11:42:56.879Z,953.1
2023-10-30T11:43:58.751Z,953.1
2023-10-30T11:45:00.518Z,953.1
2023-10-30T11:46:02.751Z,953.1
2023-10-30T11:47:04.846Z,953.1
2023-10-30T11:48:07.250Z,953.1
2023-10-30T11:49:09.537Z,953.1
2023-10-30T11:50:11.242Z,953.1
2023-10-30T11:51:16.927Z,953.1
2023-10-30T11:52:18.634Z,953
2023-10-30T11:53:20.386Z,953
2023-10-30T11:54:22.335Z,953
2023-10-30T11:55:24.064Z,953
2023-10-30T11:56:25.847Z,953
2023-10-30T11:57:27.609Z,953
2023-10-30T11:58:29.363Z,952.9
2023-10-30T11:59:31.129Z,953
2023-10-30T12:00:32.910Z,952.9
2023-10-30T12:01:35.077Z,952.9
2023-10-30T12:02:37.022Z,953
2023-10-30T12:03:39.181Z,952.9
2023-10-30T12:04:41.569Z,952.9
2023-10-30T12:05:43.663Z,952.9
2023-10-30T12:06:45.476Z,952.9
2023-10-30T12:07:47.248Z,952.9
2023-10-30T12:08:48.987Z,952.9
2023-10-30T12:09:50.826Z,952.8
2023-10-30T12:10:52.629Z,952.9
2023-10-30T12:11:54.368Z,952.8
2023-10-30T12:12:56.546Z,952.9
2023-10-30T12:13:58.300Z,952.8
2023-10-30T12:15:00.122Z,952.8
2023-10-30T12:16:02.268Z,952.8
2023-10-30T12:17:04.187Z,952.8
2023-10-30T12:18:06.064Z,952.8
2023-10-30T12:19:07.928Z,952.8
2023-10-30T12:20:09.651Z,952.8
2023-10-30T12:21:11.429Z,952.8
2023-10-30T12:22:13.111Z,952.7
2023-10-30T12:23:14.987Z,952.7
2023-10-30T12:24:21.715Z,952.8
2023-10-30T12:25:23.445Z,952.7
2023-10-30T12:26:25.152Z,952.7
2023-10-30T12:27:27.135Z,952.7
2023-10-30T12:28:28.960Z,952.7
2023-10-30T12:29:30.658Z,952.7
2023-10-30T12:30:32.763Z,952.7
2023-10-30T12:31:34.957Z,952.7
2023-10-30T12:32:36.855Z,952.7
2023-10-30T12:33:38.732Z,952.7
2023-10-30T12:34:40.617Z,952.7
2023-10-30T12:35:42.330Z,952.6
2023-10-30T12:36:44.376Z,952.6
2023-10-30T12:37:46.263Z,952.6
2023-10-30T12:38:48.012Z,952.6
2023-10-30T12:39:49.837Z,952.6
2023-10-30T12:40:51.684Z,952.6
2023-10-30T12:41:53.583Z,952.5
2023-10-30T12:42:55.712Z,952.6
2023-10-30T12:43:57.502Z,952.5
2023-10-30T12:44:59.218Z,952.6
2023-10-30T12:46:01.309Z,952.5
2023-10-30T12:47:03.438Z,952.5
2023-10-30T12:48:05.403Z,952.5
2023-10-30T12:49:07.523Z,952.5
2023-10-30T12:50:09.324Z,952.5
2023-10-30T12:51:11.217Z,952.5
2023-10-30T12:52:13.191Z,952.5
2023-10-30T12:53:14.900Z,952.5
2023-10-30T12:54:16.622Z,952.5
2023-10-30T12:55:18.424Z,952.4
2023-10-30T12:56:20.138Z,952.4
2023-10-30T12:57:21.894Z,952.4
2023-10-30T12:58:27.624Z,952.4
2023-10-30T12:59:29.685Z,952.3
2023-10-30T13:00:31.641Z,952.4
2023-10-30T13:01:58.713Z,952.4
2023-10-30T13:03:01.440Z,952.3
2023-10-30T13:04:03.924Z,952.4
2023-10-30T13:05:06.527Z,952.3
2023-10-30T13:06:08.658Z,952.3
2023-10-30T13:07:10.399Z,952.3
2023-10-30T13:08:12.139Z,952.3
2023-10-30T13:09:13.863Z,952.3
2023-10-30T13:10:15.623Z,952.3
2023-10-30T13:11:17.472Z,952.3
2023-10-30T13:12:19.259Z,952.3
2023-10-30T13:13:20.992Z,952.3
2023-10-30T13:14:22.755Z,952.3
2023-10-30T13:15:24.561Z,952.3
2023-10-30T13:16:26.527Z,952.2
2023-10-30T13:17:28.748Z,952.2
2023-10-30T13:18:30.744Z,952.2
2023-10-30T13:19:32.522Z,952.2
2023-10-30T13:20:34.223Z,952.3
2023-10-30T13:21:36.024Z,952.2
2023-10-30T13:22:37.778Z,952.2
2023-10-30T13:23:39.481Z,952.3
2023-10-30T13:24:41.271Z,952.2
2023-10-30T13:25:43.025Z,952.3
2023-10-30T13:26:44.758Z,952.3
2023-10-30T13:27:46.610Z,952.3
2023-10-30T13:28:48.435Z,952.3
2023-10-30T13:29:50.158Z,952.3
2023-10-30T13:30:52.234Z,952.3
2023-10-30T13:31:54.122Z,952.2
2023-10-30T13:32:56.368Z,952.3
2023-10-30T13:33:58.774Z,952.3
2023-10-30T13:35:00.830Z,952.3